Time;durP1;ratioP1;P1;durP2;ratioP2;P2;SDS_P1;SDS_P2;PMS_P1;PMS_P2;Temp;Humidity;BMP_temperature;BMP_pressure;BME280_temperature;BME280_humidity;BME280_pressure;Samples;Min_cycle;Max_cycle;Signal;HPM_P1;HPM_P2
2022/11/30 00:00:15;;;;;;;19.08;12.82;;;4.60;99.90;;;;;;4995029;28;20037;-70
2022/11/30 00:02:41;;;;;;;18.27;11.20;;;4.70;99.90;;;;;;5000472;28;20038;-71
2022/11/30 00:05:07;;;;;;;18.83;11.45;;;4.80;99.90;;;;;;4997127;28;20036;-71
2022/11/30 00:07:33;;;;;;;16.38;11.02;;;4.80;99.90;;;;;;4999472;28;20026;-71
2022/11/30 00:09:59;;;;;;;17.45;11.02;;;4.70;99.90;;;;;;4997006;28;20730;-71
2022/11/30 00:12:24;;;;;;;18.15;12.05;;;4.60;99.90;;;;;;5001474;28;20064;-71
2022/11/30 00:14:50;;;;;;;17.27;11.88;;;4.60;99.90;;;;;;5001052;28;20037;-71
2022/11/30 00:17:16;;;;;;;15.82;10.90;;;4.50;99.90;;;;;;5003746;28;20111;-71
2022/11/30 00:19:42;;;;;;;15.13;10.57;;;4.60;99.90;;;;;;4997464;28;20382;-71
2022/11/30 00:22:07;;;;;;;16.55;11.18;;;4.60;99.90;;;;;;5006554;28;20112;-71
2022/11/30 00:24:33;;;;;;;16.30;10.88;;;4.60;99.90;;;;;;5001283;28;20173;-71
2022/11/30 00:26:59;;;;;;;18.27;11.23;;;4.50;99.90;;;;;;5004214;28;20401;-71
2022/11/30 00:29:24;;;;;;;17.75;11.73;;;4.60;99.90;;;;;;5004026;28;20060;-71
2022/11/30 00:31:50;;;;;;;14.23;10.52;;;4.60;99.90;;;;;;5000519;28;20038;-71
2022/11/30 00:34:16;;;;;;;16.73;10.48;;;4.60;99.90;;;;;;5003137;28;20168;-71
2022/11/30 00:36:41;;;;;;;18.00;11.57;;;4.50;99.90;;;;;;5002539;28;20034;-71
2022/11/30 00:39:07;;;;;;;17.33;10.65;;;4.60;99.90;;;;;;5003235;28;20034;-71
2022/11/30 00:41:33;;;;;;;17.95;12.38;;;4.60;99.90;;;;;;5005801;28;20034;-71
2022/11/30 00:43:58;;;;;;;17.90;11.82;;;4.50;99.90;;;;;;5000704;28;20038;-71
2022/11/30 00:46:24;;;;;;;15.75;10.52;;;4.60;99.90;;;;;;5002487;28;20045;-71
2022/11/30 00:48:49;;;;;;;18.25;11.25;;;4.60;99.90;;;;;;5003562;28;20109;-71
2022/11/30 00:51:15;;;;;;;15.65;11.52;;;4.60;99.90;;;;;;4996390;28;20109;-70
2022/11/30 00:53:41;;;;;;;16.52;11.30;;;4.70;99.90;;;;;;4999132;28;20489;-71
2022/11/30 00:56:08;;;;;;;17.98;12.05;;;4.70;99.90;;;;;;5001831;28;20026;-71
2022/11/30 00:58:34;;;;;;;16.73;11.35;;;4.70;99.90;;;;;;5000700;28;20034;-71
2022/11/30 01:00:59;;;;;;;16.45;11.68;;;4.70;99.90;;;;;;5002900;28;20037;-71
2022/11/30 01:03:25;;;;;;;16.58;11.20;;;4.60;99.90;;;;;;5002295;28;20117;-71
2022/11/30 01:05:51;;;;;;;17.02;11.30;;;4.40;99.90;;;;;;4999819;28;20064;-71
2022/11/30 01:08:16;;;;;;;16.88;11.00;;;4.50;99.90;;;;;;5000917;28;20474;-71
2022/11/30 01:10:43;;;;;;;17.15;12.05;;;4.60;99.90;;;;;;5000633;28;20489;-71
2022/11/30 01:13:13;;;;;;;16.45;10.98;;;4.60;99.90;;;;;;5000071;28;20096;-71
2022/11/30 01:15:40;;;;;;;17.38;11.00;;;4.70;99.90;;;;;;4999474;28;20035;-71
2022/11/30 01:18:06;;;;;;;21.02;11.73;;;4.70;99.90;;;;;;5003193;28;20053;-71
2022/11/30 01:20:32;;;;;;;20.92;11.43;;;4.70;99.90;;;;;;5002354;28;20038;-71
2022/11/30 01:22:58;;;;;;;16.77;11.95;;;4.70;99.90;;;;;;5002633;28;20080;-71
2022/11/30 01:25:23;;;;;;;20.17;11.27;;;4.60;99.90;;;;;;5000576;28;20038;-71
2022/11/30 01:27:50;;;;;;;17.23;11.02;;;4.70;99.90;;;;;;5004041;28;20050;-71
2022/11/30 01:30:16;;;;;;;15.55;10.65;;;4.70;99.90;;;;;;5002952;28;20038;-71
2022/11/30 01:32:42;;;;;;;15.80;10.90;;;4.70;99.90;;;;;;5006417;28;20473;-71
2022/11/30 01:35:08;;;;;;;16.95;10.20;;;4.70;99.90;;;;;;5003964;28;20038;-71
2022/11/30 01:37:34;;;;;;;18.42;11.98;;;4.70;99.90;;;;;;5005393;28;20133;-71
2022/11/30 01:39:59;;;;;;;17.02;12.07;;;4.70;99.90;;;;;;5005970;28;20493;-71
2022/11/30 01:42:25;;;;;;;16.02;11.77;;;4.70;99.90;;;;;;5009490;28;20117;-71
2022/11/30 01:44:54;;;;;;;16.85;11.23;;;4.60;99.90;;;;;;5005671;28;20392;-71
2022/11/30 01:47:24;;;;;;;17.20;11.10;;;4.50;99.90;;;;;;5001751;28;20030;-71
2022/11/30 01:50:05;;;;;;;17.15;10.82;;;4.50;99.90;;;;;;5004885;28;20091;-71
2022/11/30 01:52:42;;;;;;;16.67;10.18;;;4.60;99.90;;;;;;5005967;28;20061;-71
2022/11/30 01:55:18;;;;;;;17.73;11.60;;;4.50;99.90;;;;;;5000025;28;20048;-71
2022/11/30 01:57:53;;;;;;;18.98;12.68;;;4.60;99.90;;;;;;5005392;28;20406;-70
2022/11/30 02:00:19;;;;;;;;;;;4.60;99.90;;;;;;5003232;28;20065;-71
2022/11/30 02:03:10;;;;;;;15.80;10.38;;;4.50;99.90;;;;;;5002604;28;20372;-71
2022/11/30 02:05:38;;;;;;;15.80;10.45;;;4.50;99.90;;;;;;5003223;28;20045;-71
2022/11/30 02:08:05;;;;;;;16.25;10.95;;;4.50;99.90;;;;;;5007919;28;20052;-71
2022/11/30 02:10:34;;;;;;;15.90;12.50;;;4.50;99.90;;;;;;4999200;28;20465;-71
2022/11/30 02:13:06;;;;;;;18.25;12.15;;;4.50;99.90;;;;;;5007436;28;20084;-71
2022/11/30 02:15:52;;;;;;;18.52;11.63;;;4.50;99.90;;;;;;5005605;28;20096;-71
2022/11/30 02:18:44;;;;;;;17.20;11.65;;;4.40;99.90;;;;;;5002790;28;21168;-71
2022/11/30 02:21:19;;;;;;;16.20;11.77;;;4.40;99.90;;;;;;5005044;28;20087;-71
2022/11/30 02:24:13;;;;;;;16.15;11.43;;;4.50;99.90;;;;;;4999617;28;20111;-71
2022/11/30 02:26:45;;;;;;;20.70;12.27;;;4.50;99.90;;;;;;5003820;28;20504;-71
2022/11/30 02:29:22;;;;;;;14.98;10.63;;;4.50;99.90;;;;;;5002888;28;20030;-71
2022/11/30 02:31:58;;;;;;;15.00;9.48;;;4.50;99.90;;;;;;5000746;28;20026;-71
2022/11/30 02:34:27;;;;;;;16.25;10.35;;;4.50;99.90;;;;;;5003207;28;20038;-71
2022/11/30 02:36:54;;;;;;;15.52;10.05;;;4.50;99.90;;;;;;5004655;28;20120;-71
2022/11/30 02:39:23;;;;;;;14.57;9.43;;;4.50;99.90;;;;;;5005591;28;20030;-71
2022/11/30 02:41:48;;;;;;;14.70;9.52;;;4.50;99.90;;;;;;5005633;28;20021;-71
2022/11/30 02:44:15;;;;;;;15.23;10.05;;;4.50;99.90;;;;;;5001579;28;20484;-71
2022/11/30 02:47:03;;;;;;;15.48;9.93;;;4.60;99.90;;;;;;5005586;28;20113;-71
2022/11/30 02:49:43;;;;;;;15.25;9.77;;;4.60;99.90;;;;;;5000202;28;20037;-71
2022/11/30 02:52:10;;;;;;;13.60;9.10;;;4.50;99.90;;;;;;5002134;28;20555;-71
2022/11/30 02:54:35;;;;;;;16.98;10.80;;;4.50;99.90;;;;;;5005029;28;20042;-71
2022/11/30 02:57:01;;;;;;;15.13;10.18;;;4.50;99.90;;;;;;5002957;28;20022;-71
2022/11/30 02:59:27;;;;;;;15.98;9.90;;;4.60;99.90;;;;;;5002750;28;20108;-71
2022/11/30 03:01:53;;;;;;;14.23;9.00;;;4.50;99.90;;;;;;5005098;28;20034;-71
2022/11/30 03:04:18;;;;;;;14.45;9.68;;;4.50;99.90;;;;;;5000040;28;20045;-70
2022/11/30 03:06:44;;;;;;;15.30;9.93;;;4.60;99.90;;;;;;5005198;28;20404;-71
2022/11/30 03:09:10;;;;;;;15.60;10.05;;;4.60;99.90;;;;;;5003043;28;20477;-71
2022/11/30 03:11:35;;;;;;;17.23;9.93;;;4.50;99.90;;;;;;5001242;28;20042;-71
2022/11/30 03:14:01;;;;;;;13.32;8.85;;;4.60;99.90;;;;;;5004138;28;20405;-71
2022/11/30 03:16:27;;;;;;;15.68;10.57;;;4.50;99.90;;;;;;5007551;28;20412;-71
2022/11/30 03:18:53;;;;;;;14.38;9.82;;;4.60;99.90;;;;;;5003604;28;20095;-71
2022/11/30 03:21:19;;;;;;;16.40;10.00;;;4.60;99.90;;;;;;5004765;28;20026;-71
2022/11/30 03:23:44;;;;;;;16.63;10.88;;;4.60;99.90;;;;;;5004028;28;20405;-71
2022/11/30 03:26:10;;;;;;;16.35;9.55;;;4.60;99.90;;;;;;5001700;28;20029;-71
2022/11/30 03:28:36;;;;;;;19.40;11.02;;;4.50;99.90;;;;;;5006126;28;20044;-71
2022/11/30 03:31:03;;;;;;;14.57;9.40;;;4.30;99.90;;;;;;4998241;28;20038;-71
2022/11/30 03:33:28;;;;;;;16.85;10.63;;;4.40;99.90;;;;;;5000488;28;20057;-71
2022/11/30 03:36:02;;;;;;;15.82;10.55;;;4.50;99.90;;;;;;5000620;28;20477;-71
2022/11/30 03:38:28;;;;;;;17.65;11.43;;;4.50;99.90;;;;;;5007284;28;20037;-71
2022/11/30 03:41:02;;;;;;;16.17;10.45;;;4.60;99.90;;;;;;4997974;28;20034;-70
2022/11/30 03:43:28;;;;;;;17.08;10.27;;;4.60;99.90;;;;;;5005125;28;20045;-71
2022/11/30 03:45:54;;;;;;;17.23;10.50;;;4.60;99.90;;;;;;5003469;28;20038;-71
2022/11/30 03:48:20;;;;;;;15.68;9.90;;;4.70;99.90;;;;;;5000610;28;20026;-71
2022/11/30 03:50:48;;;;;;;14.57;9.35;;;4.60;99.90;;;;;;4999672;28;20104;-71
2022/11/30 03:53:18;;;;;;;15.82;10.10;;;4.60;99.90;;;;;;5001404;28;20030;-71
2022/11/30 03:55:44;;;;;;;16.10;10.65;;;4.60;99.90;;;;;;5005721;28;20045;-71
2022/11/30 03:58:10;;;;;;;15.30;9.77;;;4.50;99.90;;;;;;5001789;28;20120;-71
2022/11/30 04:00:36;;;;;;;15.93;10.40;;;4.50;99.90;;;;;;5002444;28;20041;-69
2022/11/30 04:03:02;;;;;;;16.00;10.68;;;4.50;99.90;;;;;;4999225;28;20140;-70
2022/11/30 04:05:27;;;;;;;14.63;9.23;;;4.60;99.90;;;;;;4999815;28;20481;-70
2022/11/30 04:07:53;;;;;;;13.32;9.77;;;4.50;99.90;;;;;;4998583;28;20025;-69
2022/11/30 04:10:19;;;;;;;17.35;10.60;;;4.40;99.90;;;;;;4995652;28;20111;-70
2022/11/30 04:12:45;;;;;;;16.73;10.45;;;4.40;99.90;;;;;;4997732;28;20026;-69
2022/11/30 04:15:10;;;;;;;17.52;10.52;;;4.40;99.90;;;;;;4997886;28;20633;-69
2022/11/30 04:17:36;;;;;;;17.90;10.25;;;4.20;99.90;;;;;;4992824;28;20042;-69
2022/11/30 04:20:03;;;;;;;15.32;10.27;;;4.30;99.90;;;;;;4994767;28;20026;-70
2022/11/30 04:22:29;;;;;;;16.98;11.32;;;4.40;99.90;;;;;;4992998;28;20400;-70
2022/11/30 04:24:54;;;;;;;16.60;10.60;;;4.50;99.90;;;;;;4996544;28;20034;-70
2022/11/30 04:27:20;;;;;;;15.15;9.57;;;4.50;99.90;;;;;;4998432;28;20026;-70
2022/11/30 04:29:46;;;;;;;16.85;10.70;;;4.50;99.90;;;;;;4997495;28;20034;-70
2022/11/30 04:32:11;;;;;;;14.73;10.13;;;4.50;99.90;;;;;;4996519;28;20541;-69
2022/11/30 04:34:37;;;;;;;15.82;10.38;;;4.50;99.90;;;;;;4994584;28;20033;-69
2022/11/30 04:37:03;;;;;;;19.05;10.68;;;4.50;99.90;;;;;;4997263;28;20026;-70
2022/11/30 04:39:31;;;;;;;15.30;9.95;;;4.50;99.90;;;;;;4997541;28;20060;-69
2022/11/30 04:41:57;;;;;;;17.55;10.40;;;4.50;99.90;;;;;;4996534;28;20084;-69
2022/11/30 04:44:22;;;;;;;14.48;9.70;;;4.50;99.90;;;;;;4995870;28;20626;-70
2022/11/30 04:46:48;;;;;;;15.88;9.48;;;4.60;99.90;;;;;;4997565;28;20034;-70
2022/11/30 04:49:13;;;;;;;18.45;9.80;;;4.50;99.90;;;;;;4996077;28;20081;-69
2022/11/30 04:51:39;;;;;;;14.85;9.48;;;4.60;99.90;;;;;;4998951;28;20038;-70
2022/11/30 04:54:05;;;;;;;13.40;8.82;;;4.50;99.90;;;;;;4994874;28;20026;-70
2022/11/30 04:56:30;;;;;;;14.20;9.63;;;4.60;99.90;;;;;;4996716;28;20037;-69
2022/11/30 04:58:56;;;;;;;15.30;8.85;;;4.60;99.90;;;;;;4993945;28;20037;-70
2022/11/30 05:01:22;;;;;;;13.00;8.23;;;4.60;99.90;;;;;;4996360;28;20022;-69
2022/11/30 05:03:48;;;;;;;13.23;7.78;;;4.50;99.90;;;;;;4995699;28;20034;-69
2022/11/30 05:06:14;;;;;;;13.80;8.35;;;4.50;99.90;;;;;;4994751;28;20034;-70
2022/11/30 05:08:39;;;;;;;12.48;7.97;;;4.60;99.90;;;;;;4998944;28;20036;-70
2022/11/30 05:11:05;;;;;;;11.73;7.57;;;4.60;99.90;;;;;;4997054;28;20121;-70
2022/11/30 05:13:31;;;;;;;14.10;9.45;;;4.60;99.90;;;;;;4997280;28;20045;-69
2022/11/30 05:15:56;;;;;;;13.18;8.27;;;4.60;99.90;;;;;;4998622;28;20522;-70
2022/11/30 05:18:22;;;;;;;16.33;9.52;;;4.30;99.90;;;;;;4999730;28;20042;-70
2022/11/30 05:20:49;;;;;;;13.10;8.82;;;4.30;99.90;;;;;;4998376;28;20096;-69
2022/11/30 05:23:16;;;;;;;13.63;9.15;;;4.30;99.90;;;;;;4999693;28;20048;-69
2022/11/30 05:25:42;;;;;;;15.45;10.30;;;4.30;99.90;;;;;;4999339;28;20475;-69
2022/11/30 05:28:08;;;;;;;14.40;9.68;;;4.40;99.90;;;;;;4995255;28;20084;-70
2022/11/30 05:30:34;;;;;;;14.07;9.55;;;4.40;99.90;;;;;;4996423;28;20077;-69
2022/11/30 05:32:59;;;;;;;15.95;9.98;;;4.40;99.90;;;;;;4997283;28;20061;-69
2022/11/30 05:35:25;;;;;;;14.52;9.43;;;4.30;99.90;;;;;;4996704;28;20069;-69
2022/11/30 05:37:51;;;;;;;15.57;10.27;;;4.30;99.90;;;;;;4996689;28;20026;-70
2022/11/30 05:40:16;;;;;;;15.05;9.07;;;4.30;99.90;;;;;;4998478;28;20088;-69
2022/11/30 05:42:42;;;;;;;15.27;9.60;;;4.30;99.90;;;;;;4998362;28;20034;-69
2022/11/30 05:45:08;;;;;;;14.93;10.30;;;4.20;99.90;;;;;;4996486;28;20105;-70
2022/11/30 05:47:34;;;;;;;15.80;10.10;;;4.20;99.90;;;;;;4996614;28;20038;-69
2022/11/30 05:50:00;;;;;;;16.23;10.50;;;4.10;99.90;;;;;;4999086;28;20053;-70
2022/11/30 05:52:25;;;;;;;11.95;8.52;;;4.10;99.90;;;;;;4995011;28;20550;-69
2022/11/30 05:54:51;;;;;;;13.02;8.98;;;4.10;99.90;;;;;;4994483;28;20018;-69
2022/11/30 05:57:16;;;;;;;14.70;9.00;;;4.20;99.90;;;;;;4995112;28;20030;-70
2022/11/30 05:59:42;;;;;;;13.85;8.68;;;4.10;99.90;;;;;;4998259;28;20381;-69
2022/11/30 06:02:08;;;;;;;15.50;9.02;;;4.10;99.90;;;;;;5000502;28;20114;-69
2022/11/30 06:04:34;;;;;;;13.00;8.25;;;4.20;99.90;;;;;;4996862;28;20038;-69
2022/11/30 06:06:59;;;;;;;14.73;8.55;;;4.20;99.90;;;;;;4995906;28;20645;-70
2022/11/30 06:09:25;;;;;;;13.90;8.93;;;4.10;99.90;;;;;;4996852;28;20085;-69
2022/11/30 06:11:51;;;;;;;16.17;8.23;;;4.10;99.90;;;;;;4998984;28;20108;-70
2022/11/30 06:14:17;;;;;;;13.07;8.75;;;4.10;99.90;;;;;;4995511;28;20030;-70
2022/11/30 06:16:42;;;;;;;14.38;9.15;;;4.00;99.90;;;;;;4995382;28;20058;-70
2022/11/30 06:19:08;;;;;;;13.52;9.10;;;4.10;99.90;;;;;;4997949;28;20570;-70
2022/11/30 06:21:34;;;;;;;17.08;10.98;;;4.00;99.90;;;;;;4998043;28;20135;-70
2022/11/30 06:24:00;;;;;;;13.55;9.15;;;4.00;99.90;;;;;;4996550;28;20038;-70
2022/11/30 06:26:25;;;;;;;16.88;9.13;;;4.10;99.90;;;;;;4996375;28;20077;-70
2022/11/30 06:28:51;;;;;;;19.65;12.52;;;4.00;99.90;;;;;;4994783;28;20457;-69
2022/11/30 06:31:16;;;;;;;15.32;9.60;;;4.10;99.90;;;;;;4994290;28;20139;-70
2022/11/30 06:33:42;;;;;;;13.63;8.80;;;4.10;99.90;;;;;;4998427;28;20458;-69
2022/11/30 06:36:08;;;;;;;17.13;9.18;;;4.00;99.90;;;;;;4996140;28;20042;-69
2022/11/30 06:38:34;;;;;;;15.85;9.88;;;3.90;99.90;;;;;;4996428;28;20040;-69
2022/11/30 06:41:05;;;;;;;15.63;9.65;;;4.00;99.90;;;;;;4998705;28;20168;-70
2022/11/30 06:43:38;;;;;;;15.13;8.85;;;3.90;99.90;;;;;;4994636;28;20034;-70
2022/11/30 06:46:05;;;;;;;13.65;8.82;;;3.90;99.90;;;;;;4996846;28;20030;-70
2022/11/30 06:48:31;;;;;;;14.40;9.40;;;4.00;99.90;;;;;;4998243;28;20068;-70
2022/11/30 06:50:57;;;;;;;16.73;9.75;;;4.00;99.90;;;;;;4990410;28;20057;-69
2022/11/30 06:53:23;;;;;;;16.00;9.25;;;3.80;99.90;;;;;;4991491;28;20532;-69
2022/11/30 06:55:49;;;;;;;15.15;9.48;;;3.80;99.90;;;;;;4995645;28;20030;-69
2022/11/30 06:58:14;;;;;;;13.38;8.30;;;3.70;99.90;;;;;;4992948;28;20037;-70
2022/11/30 07:00:41;;;;;;;16.25;10.45;;;3.50;99.90;;;;;;4992759;28;20112;-71
2022/11/30 07:03:07;;;;;;;13.77;8.80;;;3.50;99.90;;;;;;5003153;28;20057;-70
2022/11/30 07:05:39;;;;;;;13.50;8.57;;;3.50;99.90;;;;;;4996630;28;20127;-70
2022/11/30 07:08:05;;;;;;;16.30;9.45;;;3.50;99.90;;;;;;4995345;28;20022;-70
2022/11/30 07:10:31;;;;;;;15.02;9.32;;;3.50;99.90;;;;;;4994310;28;20026;-71
2022/11/30 07:12:56;;;;;;;13.30;9.18;;;3.60;99.90;;;;;;4999364;28;20026;-70
2022/11/30 07:15:22;;;;;;;13.48;8.65;;;3.60;99.90;;;;;;4999447;28;20069;-70
2022/11/30 07:17:48;;;;;;;13.65;8.48;;;3.40;99.90;;;;;;5003437;28;20053;-71
2022/11/30 07:20:13;;;;;;;14.75;8.57;;;3.40;99.90;;;;;;4998731;28;20021;-69
2022/11/30 07:22:39;;;;;;;12.85;7.90;;;3.60;99.90;;;;;;4990906;28;20049;-71
2022/11/30 07:27:49;;;;;;;12.63;7.72;;;3.60;99.90;;;;;;4993298;28;20038;-71
2022/11/30 07:30:15;;;;;;;13.48;8.07;;;3.50;99.90;;;;;;4996098;28;20026;-71
2022/11/30 07:32:41;;;;;;;11.82;7.68;;;3.50;99.90;;;;;;4994854;28;20070;-71
2022/11/30 07:35:07;;;;;;;12.98;8.50;;;3.60;99.90;;;;;;4999534;28;20026;-70
2022/11/30 07:37:32;;;;;;;14.52;8.23;;;3.50;99.90;;;;;;4997147;28;20038;-71
2022/11/30 07:39:58;;;;;;;11.40;7.57;;;3.50;99.90;;;;;;4996562;28;20025;-72
2022/11/30 07:42:23;;;;;;;17.67;8.07;;;3.50;99.90;;;;;;4999582;28;20493;-69
2022/11/30 07:44:49;;;;;;;13.13;7.43;;;3.70;99.90;;;;;;4997021;28;20038;-69
2022/11/30 07:47:15;;;;;;;13.07;8.05;;;3.40;99.90;;;;;;4993004;28;20743;-69
2022/11/30 07:49:41;;;;;;;12.63;7.20;;;3.50;99.90;;;;;;5004830;28;20527;-69
2022/11/30 07:52:07;;;;;;;13.85;7.72;;;3.60;99.90;;;;;;4998712;28;20113;-69
2022/11/30 07:54:33;;;;;;;13.10;7.72;;;3.60;99.90;;;;;;4992554;28;20029;-69
2022/11/30 07:56:59;;;;;;;11.15;6.60;;;3.60;99.90;;;;;;5005776;28;20377;-69
2022/11/30 07:59:24;;;;;;;10.48;7.22;;;3.60;99.90;;;;;;5005444;28;20084;-69
2022/11/30 08:01:50;;;;;;;10.65;6.90;;;3.80;99.90;;;;;;5005877;28;20029;-69
2022/11/30 08:04:16;;;;;;;10.50;6.65;;;3.70;99.90;;;;;;5005435;28;20117;-69
2022/11/30 08:06:41;;;;;;;13.95;8.02;;;3.60;99.90;;;;;;5005667;28;20499;-69
2022/11/30 08:09:10;;;;;;;11.60;7.45;;;3.40;99.90;;;;;;5005599;28;20092;-69
2022/11/30 08:11:36;;;;;;;11.93;7.57;;;3.40;99.90;;;;;;5005986;28;20053;-69
2022/11/30 08:14:03;;;;;;;13.20;7.28;;;3.40;99.90;;;;;;5005063;28;20060;-69
2022/11/30 08:16:30;;;;;;;13.27;8.40;;;3.60;99.90;;;;;;5005478;28;20469;-69
2022/11/30 08:18:56;;;;;;;10.65;7.43;;;3.70;99.90;;;;;;5005486;28;20038;-69
2022/11/30 08:21:22;;;;;;;11.68;7.70;;;3.70;99.90;;;;;;5003326;28;20466;-69
2022/11/30 08:23:51;;;;;;;12.73;7.15;;;3.80;99.90;;;;;;5005483;28;20103;-69
2022/11/30 08:26:27;;;;;;;11.50;7.47;;;3.90;99.90;;;;;;5003108;28;20036;-69
2022/11/30 08:28:53;;;;;;;13.52;8.48;;;4.00;99.90;;;;;;5003971;28;20519;-69
2022/11/30 08:31:34;;;;;;;12.70;8.65;;;4.10;99.90;;;;;;5004880;28;20515;-69
2022/11/30 08:34:05;;;;;;;12.75;7.30;;;4.00;99.90;;;;;;5001815;28;20129;-69
2022/11/30 08:36:31;;;;;;;15.85;7.65;;;4.10;99.90;;;;;;5003045;28;20038;-69
2022/11/30 08:38:59;;;;;;;12.52;7.60;;;4.20;99.90;;;;;;5002343;28;20567;-69
2022/11/30 08:41:25;;;;;;;12.93;8.07;;;4.30;99.90;;;;;;5003976;28;20168;-69
2022/11/30 08:43:51;;;;;;;11.57;8.20;;;4.40;99.90;;;;;;4997033;28;20540;-70
2022/11/30 08:46:20;;;;;;;16.33;10.70;;;4.50;99.90;;;;;;4996021;28;20037;-69
2022/11/30 08:48:46;;;;;;;17.58;11.25;;;4.40;99.90;;;;;;4999688;28;20029;-69
2022/11/30 08:51:16;;;;;;;17.58;10.65;;;4.40;99.90;;;;;;4991717;28;20026;-69
2022/11/30 08:53:42;;;;;;;17.73;10.90;;;4.50;99.90;;;;;;4996436;28;20389;-69
2022/11/30 08:56:17;;;;;;;19.75;11.50;;;4.30;99.90;;;;;;4995643;28;20026;-69
2022/11/30 08:58:43;;;;;;;17.00;11.68;;;4.50;99.90;;;;;;4995174;28;20029;-69
2022/11/30 09:01:13;;;;;;;19.58;11.40;;;4.50;99.90;;;;;;5000776;28;20100;-69
2022/11/30 09:03:40;;;;;;;21.27;14.50;;;4.60;99.90;;;;;;4998147;28;20034;-69
2022/11/30 09:06:08;;;;;;;17.23;11.95;;;4.70;99.90;;;;;;4998446;28;20034;-69
2022/11/30 09:08:34;;;;;;;22.25;18.75;;;4.60;99.90;;;;;;4997566;28;20054;-69
2022/11/30 09:11:11;;;;;;;17.25;11.70;;;4.70;99.90;;;;;;4996142;28;20068;-69
2022/11/30 09:13:38;;;;;;;12.40;8.32;;;4.60;99.90;;;;;;4994357;28;20702;-69
2022/11/30 09:16:04;;;;;;;15.60;9.27;;;4.30;99.90;;;;;;4998321;28;20104;-69
2022/11/30 09:18:30;;;;;;;14.35;9.77;;;4.40;99.90;;;;;;4996692;28;20125;-69
2022/11/30 09:21:04;;;;;;;14.48;9.25;;;4.50;99.90;;;;;;4996880;28;20064;-70
2022/11/30 09:23:30;;;;;;;;;;;4.50;99.90;;;;;;4995375;28;20100;-70
2022/11/30 09:26:01;;;;;;;13.40;7.20;;;4.60;99.90;;;;;;4997307;28;19913;-70
2022/11/30 09:28:31;;;;;;;16.95;8.73;;;4.70;99.90;;;;;;4996916;28;20097;-70
2022/11/30 09:31:06;;;;;;;14.38;8.10;;;4.80;99.90;;;;;;4996045;28;20026;-70
2022/11/30 09:33:33;;;;;;;13.02;8.38;;;4.80;99.90;;;;;;4995462;28;20057;-70
2022/11/30 09:36:01;;;;;;;13.38;8.30;;;4.90;99.90;;;;;;4996912;28;20041;-69
2022/11/30 09:38:28;;;;;;;10.52;6.93;;;5.00;99.90;;;;;;4985525;28;20088;-72
2022/11/30 09:40:56;;;;;;;11.75;7.95;;;5.00;99.90;;;;;;4996251;28;20026;-72
2022/11/30 09:43:45;;;;;;;11.38;6.88;;;5.10;99.90;;;;;;4997182;28;20034;-72
2022/11/30 09:46:11;;;;;;;10.02;6.63;;;5.10;99.90;;;;;;4994477;28;20109;-72
2022/11/30 09:49:01;;;;;;;11.32;7.50;;;5.00;99.90;;;;;;5002066;28;20112;-72
2022/11/30 09:51:40;;;;;;;10.32;6.35;;;5.00;99.90;;;;;;4998198;28;20038;-72
2022/11/30 09:54:12;;;;;;;11.50;8.05;;;5.00;99.90;;;;;;4998846;28;20092;-72
2022/11/30 09:56:39;;;;;;;11.35;7.55;;;5.00;99.90;;;;;;4999494;28;20038;-72
2022/11/30 09:59:25;;;;;;;12.65;7.10;;;5.00;99.90;;;;;;5001458;28;21016;-71
2022/11/30 10:01:51;;;;;;;10.73;7.35;;;5.00;99.90;;;;;;5002331;28;20037;-72
2022/11/30 10:04:28;;;;;;;10.73;6.65;;;5.00;99.90;;;;;;4998775;28;20045;-72
2022/11/30 10:06:57;;;;;;;10.40;6.90;;;5.10;99.90;;;;;;4997758;28;20091;-72
2022/11/30 10:09:26;;;;;;;11.52;7.53;;;5.20;99.90;;;;;;4999556;28;20030;-72
2022/11/30 10:12:44;;;;;;;9.98;6.90;;;5.30;99.90;;;;;;4998330;28;20068;-72
2022/11/30 10:15:33;;;;;;;14.48;7.10;;;5.40;99.90;;;;;;4989612;28;20133;-73
2022/11/30 10:18:10;;;;;;;10.23;6.97;;;5.40;99.90;;;;;;5000344;28;20062;-72
2022/11/30 10:21:13;;;;;;;14.75;9.32;;;5.30;99.90;;;;;;5001671;28;20049;-72
2022/11/30 10:23:52;;;;;;;18.38;10.45;;;5.50;99.90;;;;;;4976728;28;20657;-72
2022/11/30 10:26:34;;;;;;;14.45;8.23;;;5.60;99.90;;;;;;4997813;28;20042;-72
2022/11/30 10:29:19;;;;;;;15.27;9.07;;;5.50;99.90;;;;;;5000055;28;20621;-72
2022/11/30 10:31:46;;;;;;;;;;;5.50;99.90;;;;;;5000190;28;20061;-72
2022/11/30 10:34:27;;;;;;;13.25;8.32;;;5.30;99.90;;;;;;5003573;28;19917;-73
2022/11/30 10:37:21;;;;;;;13.98;8.95;;;5.30;99.90;;;;;;5000955;28;20192;-72
2022/11/30 10:39:59;;;;;;;14.80;8.85;;;5.40;99.90;;;;;;4998643;28;20953;-72
2022/11/30 10:42:44;;;;;;;14.43;8.82;;;5.40;99.90;;;;;;4999123;28;20636;-72
2022/11/30 10:45:13;;;;;;;12.50;9.00;;;5.50;99.90;;;;;;4993685;28;20417;-72
2022/11/30 10:48:09;;;;;;;14.05;8.25;;;5.50;99.90;;;;;;4995815;28;20089;-72
2022/11/30 10:50:34;;;;;;;13.63;8.77;;;5.50;99.90;;;;;;4996260;28;20030;-72
2022/11/30 10:53:01;;;;;;;13.13;8.07;;;5.50;99.90;;;;;;4997166;28;20033;-72
2022/11/30 10:55:35;;;;;;;14.55;7.93;;;5.60;99.90;;;;;;4997741;28;20038;-72
2022/11/30 10:58:25;;;;;;;17.13;8.95;;;5.60;99.90;;;;;;4998358;28;20350;-72
2022/11/30 11:00:59;;;;;;;10.77;7.20;;;5.70;99.90;;;;;;4999039;28;20034;-72
2022/11/30 11:03:26;;;;;;;21.90;11.07;;;5.80;99.90;;;;;;4998707;28;20124;-73
2022/11/30 11:06:14;;;;;;;19.23;12.75;;;5.80;99.90;;;;;;5000549;28;20121;-72
2022/11/30 11:08:41;;;;;;;11.30;7.95;;;5.90;99.90;;;;;;4999197;28;20069;-72
2022/11/30 11:11:51;;;;;;;12.15;8.77;;;5.80;99.90;;;;;;4994220;28;20045;-72
2022/11/30 11:14:22;;;;;;;15.98;8.15;;;5.70;99.90;;;;;;4958898;28;20529;-73
2022/11/30 11:16:59;;;;;;;14.30;9.57;;;5.80;99.90;;;;;;4961184;28;21641;-72
2022/11/30 11:19:32;;;;;;;13.30;8.57;;;5.90;99.90;;;;;;4983733;28;20508;-71
2022/11/30 11:22:13;;;;;;;14.55;9.10;;;5.90;99.90;;;;;;4996745;28;20026;-71
2022/11/30 11:24:39;;;;;;;14.13;8.63;;;5.80;99.90;;;;;;4997105;28;20065;-72
2022/11/30 11:27:05;;;;;;;13.02;9.50;;;5.80;99.90;;;;;;4996091;28;20472;-72
2022/11/30 11:29:33;;;;;;;14.07;8.40;;;5.90;99.90;;;;;;4994831;28;20034;-70
2022/11/30 11:32:17;;;;;;;12.95;8.18;;;6.10;99.90;;;;;;4991442;28;20061;-71
2022/11/30 11:34:44;;;;;;;13.85;9.68;;;6.10;99.90;;;;;;4997991;28;20447;-70
2022/11/30 11:37:29;;;;;;;16.65;9.43;;;6.30;99.90;;;;;;4993587;28;20038;-70
2022/11/30 11:40:15;;;;;;;13.63;8.77;;;6.20;99.90;;;;;;4995662;28;20065;-69
2022/11/30 11:42:52;;;;;;;12.38;8.20;;;6.00;99.90;;;;;;4997015;28;20031;-71
2022/11/30 11:45:34;;;;;;;16.20;9.60;;;6.00;99.90;;;;;;4997047;28;20662;-70
2022/11/30 11:48:01;;;;;;;12.40;8.23;;;6.00;99.90;;;;;;4998648;28;20058;-70
2022/11/30 11:50:38;;;;;;;16.10;9.70;;;5.90;99.90;;;;;;4994356;28;20521;-71
2022/11/30 11:53:14;;;;;;;13.93;8.80;;;6.00;99.90;;;;;;4993046;28;20518;-71
2022/11/30 11:55:42;;;;;;;15.40;10.48;;;6.10;99.90;;;;;;4997402;28;20030;-72
2022/11/30 11:58:21;;;;;;;14.43;9.52;;;6.20;99.90;;;;;;4995772;28;20026;-72
2022/11/30 12:00:48;;;;;;;13.73;9.13;;;6.20;99.90;;;;;;4994722;28;20548;-72
2022/11/30 12:03:21;;;;;;;14.05;8.70;;;6.10;99.90;;;;;;4998050;28;20064;-72
2022/11/30 12:05:52;;;;;;;14.95;9.18;;;6.20;99.90;;;;;;4994078;28;20030;-71
2022/11/30 12:08:24;;;;;;;11.45;8.18;;;6.30;99.90;;;;;;4998311;28;20036;-72
2022/11/30 12:11:16;;;;;;;15.38;9.30;;;6.30;99.90;;;;;;4996768;28;20608;-72
2022/11/30 12:13:44;;;;;;;12.25;8.20;;;6.10;99.90;;;;;;4994972;28;20448;-73
2022/11/30 12:16:21;;;;;;;11.82;8.65;;;6.20;99.90;;;;;;4995534;28;20061;-72
2022/11/30 12:19:04;;;;;;;16.38;9.73;;;6.10;99.90;;;;;;4998258;28;20038;-73
2022/11/30 12:22:10;;;;;;;11.32;6.60;;;6.10;99.90;;;;;;4996497;28;20899;-73
2022/11/30 12:24:59;;;;;;;9.00;5.18;;;6.20;99.90;;;;;;4964490;28;20070;-72
2022/11/30 12:27:46;;;;;;;7.82;4.53;;;6.30;99.90;;;;;;4996709;28;20092;-73
2022/11/30 12:30:22;;;;;;;7.50;4.75;;;6.30;99.90;;;;;;4997508;28;20060;-73
2022/11/30 12:33:15;;;;;;;6.90;4.30;;;6.40;99.90;;;;;;5000549;28;20380;-72
2022/11/30 12:36:02;;;;;;;7.35;4.60;;;6.30;99.90;;;;;;4997841;28;20058;-72
2022/11/30 12:38:34;;;;;;;7.95;4.40;;;6.30;99.90;;;;;;4994312;28;20044;-73
2022/11/30 12:41:09;;;;;;;7.05;4.38;;;6.40;99.90;;;;;;4993741;28;20033;-73
2022/11/30 12:43:37;;;;;;;7.32;4.50;;;6.40;99.90;;;;;;4994916;28;20033;-72
2022/11/30 12:46:28;;;;;;;8.15;4.60;;;6.50;99.90;;;;;;4992798;28;20025;-73
2022/11/30 12:49:37;;;;;;;7.18;4.35;;;6.60;99.90;;;;;;4991010;28;20030;-72
2022/11/30 12:52:33;;;;;;;6.63;4.50;;;6.60;99.90;;;;;;4992638;28;20129;-72
2022/11/30 12:55:01;;;;;;;6.47;3.75;;;6.70;99.90;;;;;;4996237;28;20045;-73
2022/11/30 12:57:35;;;;;;;7.90;4.13;;;6.80;99.90;;;;;;4996007;28;20503;-72
2022/11/30 13:00:09;;;;;;;7.28;4.50;;;6.70;99.90;;;;;;4993685;28;20056;-72
2022/11/30 13:02:56;;;;;;;6.07;3.70;;;6.80;99.90;;;;;;4996675;28;20057;-72